Terminal Aerodrome Forecast
Issued by NWS Sterling, VA

Current Version | Previous Version | Text Only | Print | Product List | Glossary Off
Versions: 1 2 3 4 5 6 7 8 9 10 11 12 13 14 15 16 17 18 19 20 21 22 23 24 25

000
FTUS41 KLWX 221500 AAB
TAFIAD
TAF AMD
KIAD 221506Z 2215/2318 25006KT P6SM SCT020
      TEMPO 2215/2216 BKN020
     FM221600 19005KT P6SM BKN050
     FM230900 VRB03KT P6SM BKN030
     FM231200 21006KT P6SM BKN050=

USA.gov is the U.S. government's official web portal to all federal, state and local government web resources and services.